Terminal Aerodrome Forecast
Issued by NWS

Current Version | Previous Version | Graphics & Text | Print | Product List | Glossary On
Versions: 1 2 3 4 5 6 7 8 9 10 11 12 13 14 15 16 17 18
132
FTUS41 KPBZ 051722
TAFHLG
TAF
KHLG 051722Z 0518/0618 25005KT P6SM SCT025 BKN035
      TEMPO 0518/0520 BKN025
     FM052200 VRB03KT P6SM BKN200
     FM061400 10009KT P6SM -RA OVC040
     FM061600 12010G22KT 3SM -RA OVC015=

USA.gov is the U.S. government's official web portal to all federal, state and local government web resources and services.